Time;durP1;ratioP1;P1;durP2;ratioP2;P2;SDS_P1;SDS_P2;PMS_P1;PMS_P2;Temp;Humidity;BMP_temperature;BMP_pressure;BME280_temperature;BME280_humidity;BME280_pressure;Samples;Min_cycle;Max_cycle;Signal;HPM_P1;HPM_P2
2021/09/23 00:00:02;;;;;;;20.25;7.20;;;13.50;99.90;;;14.10;87.29;101714.22;5108941;28;20221;-69
2021/09/23 00:02:46;;;;;;;16.85;7.28;;;13.50;99.90;;;14.11;87.28;101705.44;5109504;28;20219;-68
2021/09/23 00:05:17;;;;;;;18.73;8.30;;;13.50;99.90;;;14.10;87.16;101698.44;5107936;28;20214;-69
2021/09/23 00:07:45;;;;;;;14.90;7.55;;;13.50;99.90;;;14.10;87.00;101689.69;5104080;28;20653;-69
2021/09/23 00:10:17;;;;;;;18.63;8.38;;;13.50;99.90;;;14.09;87.20;101686.19;5104686;28;20184;-69
2021/09/23 00:12:44;;;;;;;23.48;8.73;;;13.50;99.90;;;14.07;87.09;101681.88;5109291;28;20214;-70
2021/09/23 00:15:15;;;;;;;19.88;8.20;;;13.50;99.90;;;14.05;87.12;101668.78;5108207;28;20570;-69
2021/09/23 00:17:47;;;;;;;23.85;9.18;;;13.40;99.90;;;14.05;87.35;101660.88;5110164;28;20187;-69
2021/09/23 00:20:16;;;;;;;20.95;8.10;;;13.50;99.90;;;14.05;87.14;101660.88;5110656;28;22359;-69
2021/09/23 00:22:43;;;;;;;20.00;8.80;;;13.50;99.90;;;14.04;87.59;101660.94;5116379;28;20210;-69
2021/09/23 00:25:11;;;;;;;26.70;10.07;;;13.40;99.90;;;14.03;87.35;101660.13;5116807;28;20198;-70
2021/09/23 00:27:38;;;;;;;16.60;8.32;;;13.40;99.90;;;14.02;87.39;101663.63;5115289;28;20195;-69
2021/09/23 00:30:08;;;;;;;20.75;8.88;;;13.40;99.90;;;14.02;87.61;101666.28;5124539;28;20201;-70
2021/09/23 00:32:35;;;;;;;24.83;9.40;;;13.40;99.90;;;14.01;87.58;101653.16;5121890;28;21037;-69
2021/09/23 00:35:02;;;;;;;20.02;8.90;;;13.40;99.90;;;14.01;87.53;101659.31;5109356;28;20256;-69
2021/09/23 00:37:30;;;;;;;22.85;9.70;;;13.40;99.90;;;14.02;87.76;101652.25;5111761;28;20195;-68
2021/09/23 00:39:57;;;;;;;23.23;9.80;;;13.40;99.90;;;14.02;87.93;101650.47;5112033;28;20187;-68
2021/09/23 00:42:25;;;;;;;22.92;9.27;;;13.40;99.90;;;14.03;87.68;101649.59;5107949;28;20613;-70
2021/09/23 00:44:57;;;;;;;20.75;9.93;;;13.40;99.90;;;14.02;87.65;101636.44;5108198;28;20205;-71
2021/09/23 00:47:24;;;;;;;20.60;10.13;;;13.40;99.90;;;14.03;87.93;101635.56;5109558;28;20194;-68
2021/09/23 00:49:51;;;;;;;21.73;10.98;;;13.40;99.90;;;14.02;87.49;101632.06;5111600;28;20195;-70
2021/09/23 00:52:20;;;;;;;24.00;10.73;;;13.40;99.90;;;14.01;88.07;101629.47;5106699;28;20223;-70
2021/09/23 00:54:51;;;;;;;19.88;10.45;;;13.40;99.90;;;14.01;87.70;101630.34;5100203;28;20240;-69
2021/09/23 00:57:18;;;;;;;27.92;11.63;;;13.40;99.90;;;14.02;87.55;101623.28;5107520;28;20569;-69
2021/09/23 00:59:46;;;;;;;21.05;10.50;;;13.40;99.90;;;14.01;87.51;101627.72;5106622;28;20186;-69
2021/09/23 01:02:15;;;;;;;22.70;11.15;;;13.40;99.90;;;14.04;87.64;101630.22;5110241;28;20755;-69
2021/09/23 01:04:44;;;;;;;26.70;10.98;;;13.40;99.90;;;14.06;87.66;101632.81;5112314;28;20559;-69
2021/09/23 01:07:13;;;;;;;25.08;12.02;;;13.40;99.90;;;14.07;87.78;101623.97;5111018;28;20578;-69
2021/09/23 01:09:44;;;;;;;28.27;12.52;;;13.40;99.90;;;14.06;87.66;101617.88;5110954;28;20302;-69
2021/09/23 01:12:14;;;;;;;24.73;11.75;;;13.40;99.90;;;14.07;87.37;101618.72;5106570;28;20239;-69
2021/09/23 01:14:41;;;;;;;26.15;11.82;;;13.40;99.90;;;14.05;87.47;101613.50;5108784;28;20194;-69
2021/09/23 01:17:08;;;;;;;23.60;11.70;;;13.40;99.90;;;14.06;87.46;101606.47;5110337;28;20202;-69
2021/09/23 01:19:41;;;;;;;25.67;12.25;;;13.40;99.90;;;14.06;87.36;101604.72;5105393;28;20199;-67
2021/09/23 01:22:10;;;;;;;26.50;13.00;;;13.40;99.90;;;14.06;87.39;101604.72;5110738;28;20218;-69
2021/09/23 01:24:56;;;;;;;27.98;12.25;;;13.40;99.90;;;14.05;87.50;101592.44;5107310;28;20206;-69
2021/09/23 01:27:23;;;;;;;24.27;11.98;;;13.40;99.90;;;14.07;87.19;101587.13;5108376;28;20312;-69
2021/09/23 01:29:50;;;;;;;28.23;13.02;;;13.40;99.90;;;14.07;87.49;101581.88;5111997;28;20259;-67
2021/09/23 01:32:19;;;;;;;29.60;12.32;;;13.40;99.90;;;14.06;87.41;101575.75;5107189;28;20332;-69
2021/09/23 01:34:48;;;;;;;27.85;13.25;;;13.40;99.90;;;14.04;87.33;101572.31;5109153;28;20187;-67
2021/09/23 01:37:17;;;;;;;26.40;12.90;;;13.40;99.90;;;14.04;87.50;101566.19;5109569;28;20255;-69
2021/09/23 01:39:49;;;;;;;28.33;12.95;;;13.40;99.90;;;14.03;87.31;101564.50;5111667;28;20186;-69
2021/09/23 01:42:22;;;;;;;26.40;12.02;;;13.40;99.90;;;14.02;87.52;101561.00;5104971;28;20223;-69
2021/09/23 01:44:49;;;;;;;26.88;13.23;;;13.40;99.90;;;14.02;87.54;101557.50;5111418;28;20213;-69
2021/09/23 01:47:18;;;;;;;26.52;12.95;;;13.40;99.90;;;14.01;87.89;101554.03;5109606;28;20685;-69
2021/09/23 01:49:55;;;;;;;26.08;12.77;;;13.40;99.90;;;14.00;87.52;101554.91;5111189;28;20182;-69
2021/09/23 01:52:23;;;;;;;27.52;13.90;;;13.40;99.90;;;13.98;87.74;101558.53;5109765;28;20276;-69
2021/09/23 01:55:08;;;;;;;23.83;12.48;;;13.40;99.90;;;13.96;87.86;101561.22;5110651;28;20190;-71
2021/09/23 01:57:34;;;;;;;27.77;13.15;;;13.40;99.90;;;13.94;88.08;101552.53;5109668;28;20255;-70
2021/09/23 02:00:01;;;;;;;24.23;12.93;;;13.40;99.90;;;13.91;87.76;101549.16;5110198;28;20358;-69
2021/09/23 02:02:40;;;;;;;29.38;13.75;;;13.30;99.90;;;13.88;87.69;101537.00;5104535;28;20222;-69
2021/09/23 02:05:11;;;;;;;27.00;13.25;;;13.30;99.90;;;13.85;88.00;101545.84;5109082;28;20187;-69
2021/09/23 02:07:40;;;;;;;25.50;13.05;;;13.30;99.90;;;13.85;88.17;101542.34;5109969;28;20190;-67
2021/09/23 02:10:12;;;;;;;28.02;13.05;;;13.30;99.90;;;13.85;88.27;101542.34;5106359;28;20191;-69
2021/09/23 02:12:39;;;;;;;31.35;13.65;;;13.30;99.90;;;13.84;87.96;101538.00;5105411;28;20225;-70
2021/09/23 02:15:10;;;;;;;27.20;13.15;;;13.30;99.90;;;13.84;88.25;101532.75;5110072;28;20244;-67
2021/09/23 02:17:37;;;;;;;29.17;13.68;;;13.20;99.90;;;13.81;88.31;101515.28;5103426;28;20663;-67
2021/09/23 02:20:10;;;;;;;27.05;13.02;;;13.20;99.90;;;13.78;88.10;101523.28;5108703;28;20222;-70
2021/09/23 02:22:47;;;;;;;27.25;13.98;;;13.20;99.90;;;13.75;88.22;101530.44;5120254;27;20588;-69
2021/09/23 02:25:14;;;;;;;31.08;14.38;;;13.20;99.90;;;13.76;88.40;101519.03;5108784;28;20190;-70
2021/09/23 02:27:41;;;;;;;25.50;13.35;;;13.20;99.90;;;13.75;88.53;101523.41;5102414;28;20183;-69
2021/09/23 02:30:10;;;;;;;34.05;15.75;;;13.20;99.90;;;13.75;88.65;101523.41;5108315;27;20202;-69
2021/09/23 02:32:38;;;;;;;29.92;14.25;;;13.20;99.90;;;13.76;88.77;101519.03;5102273;28;20209;-70
2021/09/23 02:35:07;;;;;;;30.48;14.45;;;13.20;99.90;;;13.77;88.67;101504.94;5110415;28;20205;-69
2021/09/23 02:37:34;;;;;;;32.60;14.68;;;13.20;99.90;;;13.79;88.46;101500.47;5127562;27;20547;-69
2021/09/23 02:40:02;;;;;;;28.85;15.32;;;13.20;99.90;;;13.80;88.74;101494.28;5106563;27;20203;-68
2021/09/23 02:42:29;;;;;;;29.05;13.95;;;13.20;99.90;;;13.79;88.79;101501.34;5106861;28;20594;-68
2021/09/23 02:44:56;;;;;;;28.20;14.68;;;13.20;99.90;;;13.80;88.49;101494.28;5105278;28;20190;-70
2021/09/23 02:47:23;;;;;;;29.60;14.38;;;13.20;99.90;;;13.80;88.58;101491.66;5109915;28;20213;-69
2021/09/23 02:49:50;;;;;;;27.75;14.10;;;13.20;99.90;;;13.80;88.62;101486.41;5110439;28;20642;-67
2021/09/23 02:52:17;;;;;;;29.63;14.80;;;13.10;99.90;;;13.79;88.70;101469.78;5108321;28;20215;-68
2021/09/23 02:54:45;;;;;;;30.95;16.58;;;13.20;99.90;;;13.79;88.89;101472.41;5110677;27;20212;-69
2021/09/23 02:57:13;;;;;;;30.58;16.33;;;13.20;99.90;;;13.81;88.43;101473.19;5112934;28;20577;-69
2021/09/23 02:59:40;;;;;;;34.78;16.13;;;13.20;99.90;;;13.80;88.67;101463.59;5108187;28;20195;-69
2021/09/23 03:02:07;;;;;;;32.17;15.82;;;13.20;99.90;;;13.79;88.84;101456.63;5106663;28;20215;-69
2021/09/23 03:04:34;;;;;;;35.40;16.08;;;13.20;99.90;;;13.73;88.65;101445.50;5102983;28;20630;-69
2021/09/23 03:07:01;;;;;;;28.48;15.15;;;13.10;99.90;;;13.69;88.98;101443.88;5106968;28;20191;-69
2021/09/23 03:09:37;;;;;;;33.58;16.63;;;13.10;99.90;;;13.66;88.79;101439.56;5091754;28;20194;-69
2021/09/23 03:12:04;;;;;;;34.40;15.60;;;13.10;99.90;;;13.65;89.27;101434.38;5106353;28;20207;-68
2021/09/23 03:14:32;;;;;;;32.75;16.05;;;13.10;99.90;;;13.64;89.20;101435.31;5099362;28;20223;-69
2021/09/23 03:16:59;;;;;;;32.33;16.42;;;13.00;99.90;;;13.61;89.02;101440.69;5109821;28;20201;-70
2021/09/23 03:19:26;;;;;;;30.98;15.88;;;13.00;99.90;;;13.61;89.39;101441.53;5101180;28;20183;-71
2021/09/23 03:21:54;;;;;;;32.17;16.95;;;13.00;99.90;;;13.59;89.14;101438.13;5103296;28;20217;-70
2021/09/23 03:24:21;;;;;;;38.17;16.58;;;13.00;99.90;;;13.58;89.12;101436.38;5107377;28;20223;-68
2021/09/23 03:26:48;;;;;;;33.72;15.73;;;13.00;99.90;;;13.58;89.62;101438.19;5106297;28;20563;-68
2021/09/23 03:29:16;;;;;;;33.40;17.23;;;13.00;99.90;;;13.59;89.33;101443.38;5107706;28;20205;-69
2021/09/23 03:31:44;;;;;;;36.75;16.58;;;13.00;99.90;;;13.60;89.46;101437.19;5111778;28;20582;-69
2021/09/23 03:34:11;;;;;;;36.72;17.17;;;13.00;99.90;;;13.61;89.60;101430.16;5109891;28;20191;-68
2021/09/23 03:36:38;;;;;;;34.35;17.10;;;13.00;99.90;;;13.57;89.53;101428.56;5111807;28;20655;-68
2021/09/23 03:39:06;;;;;;;35.47;17.58;;;13.00;99.90;;;13.58;89.29;101425.03;5111715;28;20186;-68
2021/09/23 03:41:33;;;;;;;38.90;18.13;;;13.00;99.90;;;13.58;89.54;101428.50;5109492;28;20191;-69
2021/09/23 03:44:00;;;;;;;35.38;17.50;;;13.00;99.90;;;13.58;89.62;101425.03;5110328;28;20207;-69
2021/09/23 03:46:28;;;;;;;33.03;17.23;;;13.00;99.90;;;13.57;89.39;101425.94;5102199;28;20188;-68
2021/09/23 03:48:56;;;;;;;36.63;17.58;;;13.00;99.90;;;13.57;89.53;101412.78;5110450;28;20191;-69
2021/09/23 03:51:24;;;;;;;35.08;17.33;;;13.00;99.90;;;13.58;89.36;101419.78;5110435;28;20187;-69
2021/09/23 03:53:51;;;;;;;32.63;17.15;;;13.00;99.90;;;13.55;89.62;101414.59;5105830;28;20271;-69
2021/09/23 03:56:18;;;;;;;34.97;16.60;;;13.00;99.90;;;13.51;89.68;101407.78;5113838;28;20192;-69
2021/09/23 03:58:47;;;;;;;31.92;16.13;;;12.90;99.90;;;13.48;89.58;101402.63;5122140;28;20244;-69
2021/09/23 04:01:14;;;;;;;34.10;16.50;;;12.90;99.90;;;13.43;89.63;101401.94;5113789;28;20199;-66
2021/09/23 04:03:42;;;;;;;31.45;16.20;;;12.90;99.90;;;13.40;90.01;101404.66;5110196;28;20222;-67
2021/09/23 04:06:11;;;;;;;33.65;15.68;;;12.80;99.90;;;13.37;89.84;101404.78;5110612;28;20294;-68
2021/09/23 04:08:38;;;;;;;38.03;16.58;;;12.80;99.90;;;13.32;89.68;101412.00;5110018;28;20187;-69
2021/09/23 04:11:13;;;;;;;34.00;16.35;;;12.80;99.90;;;13.25;90.26;101414.00;5108034;28;20175;-69
2021/09/23 04:13:41;;;;;;;31.95;16.42;;;12.70;99.90;;;13.21;89.97;101414.19;5114280;28;20219;-69
2021/09/23 04:16:08;;;;;;;30.38;16.13;;;12.70;99.90;;;13.21;90.31;101408.94;5110709;28;20187;-68
2021/09/23 04:18:35;;;;;;;33.47;16.73;;;12.70;99.90;;;13.19;90.23;101405.50;5093633;28;20241;-69
2021/09/23 04:21:01;;;;;;;28.88;15.07;;;12.70;99.90;;;13.20;90.19;101405.44;5099890;28;20735;-68
2021/09/23 04:23:30;;;;;;;28.63;15.30;;;12.70;99.90;;;13.20;89.96;101407.19;5108176;28;20219;-69
2021/09/23 04:25:57;;;;;;;31.67;15.85;;;12.70;99.90;;;13.18;89.54;101385.38;5109366;28;20204;-68
2021/09/23 04:28:23;;;;;;;29.45;14.75;;;12.70;99.90;;;13.18;89.77;101399.38;5112270;28;20188;-69
2021/09/23 04:30:54;;;;;;;30.90;15.20;;;12.70;99.90;;;13.14;89.71;101389.03;5113367;28;20274;-71
2021/09/23 04:33:20;;;;;;;30.08;15.35;;;12.70;99.90;;;13.14;89.99;101384.66;5114476;27;20198;-70
2021/09/23 04:35:49;;;;;;;30.80;15.15;;;12.60;99.90;;;13.15;89.72;101382.84;5113852;28;20183;-69
2021/09/23 04:38:18;;;;;;;33.15;15.05;;;12.60;99.90;;;13.13;89.85;101380.28;5113456;28;20198;-69
2021/09/23 04:40:48;;;;;;;28.23;14.68;;;12.60;99.90;;;13.12;89.68;101372.47;5111950;28;20210;-69
2021/09/23 04:43:16;;;;;;;26.70;14.55;;;12.60;99.90;;;13.08;89.56;101368.25;5110318;28;20225;-69
2021/09/23 04:45:43;;;;;;;31.17;14.73;;;12.60;99.90;;;13.05;89.69;101356.06;5104630;28;20187;-70
2021/09/23 04:48:09;;;;;;;28.00;13.90;;;12.50;99.90;;;13.02;89.54;101356.19;5113920;28;20197;-70
2021/09/23 04:50:37;;;;;;;28.25;14.45;;;12.50;99.90;;;12.99;89.48;101351.03;5109369;28;20235;-68
2021/09/23 04:53:08;;;;;;;32.35;14.50;;;12.50;99.90;;;12.96;89.71;101355.53;5105184;28;20240;-69
2021/09/23 04:55:35;;;;;;;30.27;14.18;;;12.40;99.90;;;12.97;89.64;101351.97;5104702;28;20186;-69
2021/09/23 04:58:04;;;;;;;32.25;14.02;;;12.50;99.90;;;12.94;89.67;101346.84;5112993;28;20364;-68
2021/09/23 05:00:31;;;;;;;32.92;14.55;;;12.40;99.90;;;12.93;89.79;101350.41;5113064;28;20198;-69
2021/09/23 05:02:58;;;;;;;32.20;14.65;;;12.40;99.90;;;12.89;89.85;101352.28;5112847;28;20219;-69
2021/09/23 05:05:29;;;;;;;30.75;14.90;;;12.40;99.90;;;12.89;89.91;101361.91;5112336;28;20282;-68
2021/09/23 05:07:56;;;;;;;32.60;14.00;;;12.40;99.90;;;12.90;90.07;101347.84;5114154;28;20204;-69
2021/09/23 05:10:23;;;;;;;29.88;15.43;;;12.40;99.90;;;12.92;90.19;101348.66;5112947;28;20202;-70
2021/09/23 05:12:50;;;;;;;31.17;15.23;;;12.40;99.90;;;12.92;90.01;101348.66;5112215;28;20229;-67
2021/09/23 05:15:18;;;;;;;36.55;16.25;;;12.40;99.90;;;12.93;89.88;101347.78;5113985;28;20197;-68
2021/09/23 05:17:45;;;;;;;31.38;14.77;;;12.40;99.90;;;12.93;89.83;101327.59;5112965;28;20537;-68
2021/09/23 05:20:12;;;;;;;32.97;15.60;;;12.40;99.90;;;12.92;89.74;101330.28;5112483;28;20224;-69
2021/09/23 05:22:39;;;;;;;31.58;15.00;;;12.40;99.90;;;12.93;89.95;101327.59;5113532;28;20216;-69
2021/09/23 05:25:07;;;;;;;36.05;15.73;;;12.40;99.90;;;12.95;89.62;101328.38;5112873;28;20186;-70
2021/09/23 05:27:36;;;;;;;29.48;15.18;;;12.40;99.90;;;12.97;89.83;101323.06;5113475;28;20195;-69
2021/09/23 05:30:06;;;;;;;33.17;15.60;;;12.40;99.90;;;12.98;89.49;101319.56;5112441;28;20187;-69
2021/09/23 05:32:34;;;;;;;37.55;17.08;;;12.40;99.90;;;12.98;89.73;101324.81;5112392;28;20232;-69
2021/09/23 05:35:01;;;;;;;32.35;15.95;;;12.50;99.90;;;13.02;89.63;101318.53;5104350;28;20204;-69
2021/09/23 05:37:28;;;;;;;32.10;16.98;;;12.50;99.90;;;13.01;89.53;101322.94;5112809;28;20191;-69
2021/09/23 05:39:55;;;;;;;31.70;15.52;;;12.50;99.90;;;13.00;89.39;101323.81;5113710;28;20191;-69
2021/09/23 05:42:21;;;;;;;29.83;14.80;;;12.50;99.90;;;12.97;89.20;101326.56;5110059;28;20226;-69
2021/09/23 05:44:48;;;;;;;31.38;15.30;;;12.50;99.90;;;12.96;89.20;101329.25;5111721;28;20214;-69
2021/09/23 05:47:15;;;;;;;32.83;16.48;;;12.50;99.90;;;12.92;89.43;101331.13;5091781;28;20195;-67
2021/09/23 05:49:43;;;;;;;35.05;16.10;;;12.50;99.90;;;12.92;89.38;101327.66;5092938;28;20195;-68
2021/09/23 05:52:11;;;;;;;36.15;16.65;;;12.40;99.90;;;12.93;89.45;101329.38;5093680;28;20755;-68
2021/09/23 05:54:37;;;;;;;32.67;16.67;;;12.50;99.90;;;12.93;89.49;101330.22;5113593;27;20234;-68
2021/09/23 05:57:06;;;;;;;38.35;16.30;;;12.50;99.90;;;12.97;89.28;101331.81;5113560;28;20175;-69
2021/09/23 05:59:32;;;;;;;31.75;15.32;;;12.50;99.90;;;13.01;89.23;101328.19;5111940;28;20202;-69
2021/09/23 06:01:59;;;;;;;34.35;15.90;;;12.60;99.90;;;13.05;89.23;101339.44;5113003;28;20211;-69
2021/09/23 06:04:26;;;;;;;32.42;15.07;;;12.60;99.90;;;13.07;88.89;101332.34;5111925;28;20233;-69
2021/09/23 06:06:54;;;;;;;34.17;16.73;;;12.60;99.90;;;13.10;88.91;101333.09;5110310;28;20199;-69
2021/09/23 06:09:23;;;;;;;31.40;15.60;;;12.70;99.90;;;13.13;88.81;101330.34;5110028;28;20659;-69
2021/09/23 06:11:50;;;;;;;32.38;15.38;;;12.70;99.90;;;13.17;88.80;101329.34;5103162;28;20211;-68
2021/09/23 06:14:16;;;;;;;32.67;16.00;;;12.70;99.90;;;13.22;88.71;101337.03;5110360;28;20197;-67
2021/09/23 06:16:43;;;;;;;31.23;15.95;;;12.80;99.90;;;13.24;88.51;101333.44;5111502;28;20247;-68
2021/09/23 06:19:10;;;;;;;34.50;16.63;;;12.80;99.90;;;13.25;88.16;101321.13;5106142;28;20187;-70
2021/09/23 06:21:37;;;;;;;32.42;16.75;;;12.80;99.90;;;13.27;88.24;101324.56;5112211;28;20187;-68
2021/09/23 06:24:06;;;;;;;34.80;17.60;;;12.80;99.90;;;13.29;87.98;101301.72;5108504;28;20227;-69
2021/09/23 06:26:33;;;;;;;38.40;16.60;;;12.90;99.90;;;13.34;88.32;101302.38;5111109;28;20194;-70
2021/09/23 06:29:00;;;;;;;33.38;16.85;;;12.90;99.90;;;13.37;87.93;101294.38;5104926;28;20191;-68
2021/09/23 06:31:26;;;;;;;31.33;15.68;;;12.90;99.90;;;13.42;87.80;101293.28;5106644;28;20737;-66
2021/09/23 06:33:53;;;;;;;35.25;17.35;;;13.00;99.90;;;13.47;87.57;101295.72;5105652;28;20199;-69
2021/09/23 06:36:21;;;;;;;38.25;17.65;;;13.00;99.90;;;13.52;87.46;101294.63;5106324;28;20694;-69
2021/09/23 06:38:47;;;;;;;39.80;17.95;;;13.10;99.90;;;13.58;87.58;101278.59;5104256;28;20304;-69
2021/09/23 06:41:15;;;;;;;35.97;17.73;;;13.10;99.90;;;13.65;87.49;101281.81;5098744;28;20203;-68
2021/09/23 06:43:43;;;;;;;35.70;16.90;;;13.20;99.90;;;13.71;87.32;101279.78;5101636;28;20586;-69
2021/09/23 06:46:12;;;;;;;37.28;17.23;;;13.30;99.90;;;13.75;87.33;101276.13;5099961;28;20659;-69
2021/09/23 06:48:39;;;;;;;36.10;17.10;;;13.30;99.90;;;13.79;87.04;101285.63;5102810;28;20620;-68
2021/09/23 06:51:06;;;;;;;36.80;18.15;;;13.30;99.90;;;13.84;86.93;101282.78;5107123;28;20190;-70
2021/09/23 06:53:33;;;;;;;36.60;18.30;;;13.40;99.90;;;13.88;86.86;101276.50;5103672;28;20600;-69
2021/09/23 06:56:00;;;;;;;39.05;18.05;;;13.40;99.90;;;13.95;86.78;101274.44;5100218;28;20595;-69
2021/09/23 06:58:28;;;;;;;42.72;18.77;;;13.50;99.90;;;14.01;86.55;101267.16;5106063;28;20237;-69
2021/09/23 07:01:13;;;;;;;38.65;18.70;;;13.50;99.90;;;14.07;86.16;101274.75;5110041;28;20209;-69
2021/09/23 07:03:59;;;;;;;41.75;19.13;;;13.60;99.90;;;14.14;86.36;101267.47;5101538;28;20302;-70
2021/09/23 07:06:44;;;;;;;38.13;17.75;;;13.60;99.90;;;14.19;85.60;101260.22;5101638;28;20207;-70
2021/09/23 07:09:19;;;;;;;41.75;18.75;;;13.70;99.90;;;14.21;85.54;101253.97;5107322;28;20190;-69
2021/09/23 07:11:46;;;;;;;39.30;19.23;;;13.70;99.90;;;14.22;85.44;101250.41;5109753;28;20220;-68
2021/09/23 07:14:14;;;;;;;38.00;17.27;;;13.70;99.90;;;14.25;85.08;101242.41;5106678;28;20186;-69
2021/09/23 07:16:41;;;;;;;43.00;19.25;;;13.80;99.90;;;14.32;84.78;101253.50;5108951;28;20186;-69
2021/09/23 07:19:08;;;;;;;42.50;18.13;;;13.80;99.90;;;14.38;84.67;101245.38;5103385;28;20187;-68
2021/09/23 07:21:35;;;;;;;39.88;18.75;;;13.90;99.90;;;14.44;84.42;101256.47;5103090;28;20190;-69
2021/09/23 07:24:04;;;;;;;42.00;18.30;;;13.90;99.90;;;14.50;84.09;101245.66;5102374;28;20257;-69
2021/09/23 07:26:32;;;;;;;43.47;19.05;;;14.00;99.90;;;14.58;83.92;101247.97;5102079;28;20182;-70
2021/09/23 07:28:59;;;;;;;38.72;18.50;;;14.10;99.90;;;14.65;83.55;101238.84;5103041;28;20206;-69
2021/09/23 07:31:27;;;;;;;37.47;17.65;;;14.20;99.90;;;14.73;83.12;101219.13;5109149;28;20316;-69
2021/09/23 07:33:54;;;;;;;38.72;18.52;;;14.30;99.90;;;14.80;82.89;101233.72;5109863;28;20188;-71
2021/09/23 07:36:23;;;;;;;36.70;18.15;;;14.30;99.90;;;14.87;82.69;101218.47;5121011;28;20291;-71
2021/09/23 07:38:49;;;;;;;37.72;17.88;;;14.40;99.90;;;14.94;82.52;101214.63;5117861;28;20191;-69
2021/09/23 07:41:16;;;;;;;39.88;18.02;;;14.50;99.90;;;14.98;82.23;101206.50;5104876;28;20202;-70
2021/09/23 07:43:43;;;;;;;35.90;17.35;;;14.60;99.90;;;15.05;81.77;101201.81;5107302;28;20211;-68
2021/09/23 07:46:10;;;;;;;37.30;16.77;;;14.60;99.90;;;15.12;81.57;101197.09;5104975;28;20199;-70
2021/09/23 07:48:38;;;;;;;37.00;17.60;;;14.70;99.90;;;15.19;81.23;101196.69;5107308;28;20198;-69
2021/09/23 07:51:05;;;;;;;35.63;16.90;;;14.80;99.90;;;15.28;80.89;101198.91;5108513;28;20776;-68
2021/09/23 07:53:32;;;;;;;35.42;16.55;;;14.80;99.90;;;15.36;80.63;101195.88;5125461;27;20210;-66
2021/09/23 07:55:59;;;;;;;36.60;16.80;;;15.00;99.90;;;15.45;80.26;101184.91;5103242;28;20274;-69
2021/09/23 07:58:26;;;;;;;34.03;15.88;;;15.00;99.90;;;15.56;79.61;101187.84;5110572;28;20199;-68
2021/09/23 08:00:53;;;;;;;36.65;16.95;;;15.20;99.90;;;15.63;79.24;101183.97;5104221;28;20244;-68
2021/09/23 08:03:19;;;;;;;35.22;16.17;;;15.30;99.90;;;15.71;78.86;101174.72;5110523;28;20215;-67
2021/09/23 08:05:49;;;;;;;31.88;16.15;;;15.40;99.90;;;15.79;78.06;101166.44;5112035;28;20217;-68
2021/09/23 08:08:16;;;;;;;36.67;16.73;;;15.50;99.90;;;15.87;78.07;101172.16;5111711;28;20662;-68
2021/09/23 08:10:45;;;;;;;34.00;15.90;;;15.60;99.90;;;15.93;78.06;101171.84;5111686;28;20217;-69
2021/09/23 08:13:12;;;;;;;36.25;15.23;;;15.70;99.90;;;16.00;77.33;101160.03;5108434;28;20219;-66
2021/09/23 08:15:41;;;;;;;34.05;15.25;;;15.80;99.90;;;16.07;77.28;101156.13;5112152;28;20194;-69
2021/09/23 08:18:22;;;;;;;33.15;15.18;;;15.80;99.90;;;16.12;76.65;101148.81;5112564;28;20215;-69
2021/09/23 08:21:04;;;;;;;30.65;14.40;;;15.90;99.90;;;16.20;76.83;101141.34;5110952;28;20213;-70
2021/09/23 08:23:32;;;;;;;32.55;14.07;;;16.00;99.90;;;16.24;76.24;101117.31;5111024;28;20221;-69
2021/09/23 08:25:59;;;;;;;36.22;14.85;;;16.10;99.90;;;16.28;75.77;101129.41;5110016;28;20310;-69
2021/09/23 08:28:28;;;;;;;32.50;15.20;;;16.10;99.90;;;16.30;75.54;101124.91;5109849;28;20191;-70
2021/09/23 08:30:56;;;;;;;29.90;14.35;;;16.20;99.90;;;16.31;75.11;101107.25;5108585;28;20187;-69
2021/09/23 08:33:23;;;;;;;32.75;14.32;;;16.20;99.90;;;16.33;75.04;101113.31;5109396;28;20222;-69
2021/09/23 08:35:50;;;;;;;27.35;13.60;;;16.20;99.90;;;16.37;74.83;101099.00;5112426;28;20185;-69
2021/09/23 08:38:19;;;;;;;32.15;15.88;;;16.20;99.90;;;16.39;75.04;101086.56;5102303;28;20191;-69
2021/09/23 08:40:50;;;;;;;29.73;13.70;;;16.20;99.90;;;16.41;74.98;101087.31;5115703;28;20183;-70
2021/09/23 08:43:19;;;;;;;27.85;12.77;;;16.20;99.90;;;16.43;74.86;101082.81;5132237;28;20211;-70
2021/09/23 08:45:46;;;;;;;26.48;12.85;;;16.30;99.90;;;16.44;74.46;101089.81;5130592;28;20222;-69
2021/09/23 08:48:15;;;;;;;29.17;12.80;;;16.30;99.90;;;16.45;74.45;101083.56;5133229;28;20620;-69
2021/09/23 08:50:42;;;;;;;28.75;13.10;;;16.30;99.90;;;16.46;74.36;101081.81;5126265;28;20271;-69
2021/09/23 08:53:10;;;;;;;26.52;12.63;;;16.30;99.90;;;16.46;74.18;101072.09;5126320;28;20221;-67
2021/09/23 08:55:38;;;;;;;29.05;13.10;;;16.30;99.90;;;16.45;74.08;101075.66;5133528;28;20191;-69
2021/09/23 08:58:09;;;;;;;27.10;12.43;;;16.30;99.90;;;16.43;74.50;101072.22;5123794;28;20180;-68
2021/09/23 09:00:58;;;;;;;24.98;11.73;;;16.20;99.90;;;16.43;74.33;101076.69;5124969;28;20178;-68
2021/09/23 09:03:28;;;;;;;28.38;12.07;;;16.20;99.90;;;16.44;74.03;101073.09;5122427;28;20195;-68
2021/09/23 09:06:05;;;;;;;28.48;12.60;;;16.20;99.90;;;16.50;74.20;101063.06;5136488;28;20203;-69
2021/09/23 09:08:49;;;;;;;23.80;10.98;;;16.30;99.90;;;16.59;73.90;101054.63;5132561;28;20171;-69
2021/09/23 09:11:27;;;;;;;25.90;11.85;;;16.40;99.90;;;16.66;73.49;101060.41;5131375;28;20194;-71
2021/09/23 09:13:54;;;;;;;29.63;11.60;;;16.50;99.90;;;16.71;73.32;101043.31;5131057;28;20171;-70
2021/09/23 09:16:25;;;;;;;23.75;11.30;;;16.60;99.90;;;16.77;73.31;101035.06;5133388;28;20240;-70
2021/09/23 09:19:00;;;;;;;24.75;11.70;;;16.60;99.90;;;16.84;73.35;101047.00;5132463;28;20214;-69
2021/09/23 09:21:28;;;;;;;24.55;11.07;;;16.70;99.90;;;16.90;73.30;101045.75;5134758;28;20175;-69
2021/09/23 09:23:58;;;;;;;22.70;10.45;;;16.70;99.90;;;16.93;72.97;101035.88;5095095;28;986363;-69
2021/09/23 09:26:32;;;;;;;26.10;10.63;;;16.80;99.90;;;16.97;72.49;101033.91;5132881;28;20194;-69
2021/09/23 09:29:03;;;;;;;23.17;10.43;;;16.80;99.90;;;17.02;72.22;101023.91;5135075;28;20175;-70
2021/09/23 09:31:31;;;;;;;24.27;10.27;;;16.90;99.90;;;17.07;71.83;101013.91;5146034;27;20199;-69
2021/09/23 09:34:03;;;;;;;23.42;10.63;;;16.90;99.90;;;17.14;71.85;101021.38;5124330;28;20195;-68
2021/09/23 09:36:48;;;;;;;27.13;10.07;;;17.00;99.90;;;17.20;71.79;101017.50;5123467;28;20191;-69
2021/09/23 09:39:18;;;;;;;21.33;10.13;;;17.10;99.90;;;17.24;71.13;101013.75;5119925;28;20194;-69
2021/09/23 09:41:48;;;;;;;20.98;10.20;;;17.10;99.90;;;17.26;71.03;101003.94;5110976;28;20583;-70
2021/09/23 09:44:17;;;;;;;21.75;9.88;;;17.10;99.90;;;17.33;70.63;101007.91;5115135;28;20187;-68
2021/09/23 09:46:49;;;;;;;24.02;10.18;;;17.20;99.90;;;17.39;69.72;100987.22;5103675;28;20195;-68
2021/09/23 09:49:19;;;;;;;21.13;10.18;;;17.20;99.90;;;17.48;69.44;100989.31;5108760;28;20201;-66
2021/09/23 09:51:51;;;;;;;26.10;10.07;;;17.30;99.90;;;17.56;69.59;100974.75;5107995;28;20220;-67
2021/09/23 09:54:21;;;;;;;22.48;9.75;;;17.40;99.90;;;17.62;69.14;100979.66;5097197;28;20183;-68
2021/09/23 09:56:56;;;;;;;24.92;9.68;;;17.50;99.90;;;17.69;69.27;100967.75;5099554;28;20187;-68
2021/09/23 09:59:23;;;;;;;22.08;9.68;;;17.60;99.90;;;17.70;69.08;100969.47;5107249;28;20195;-69
2021/09/23 10:01:57;;;;;;;23.55;10.25;;;17.60;99.90;;;17.69;69.39;100973.03;5110169;28;20694;-68
2021/09/23 10:04:29;;;;;;;22.13;9.32;;;17.60;99.90;;;17.70;68.92;100977.41;5106536;28;20223;-69
2021/09/23 10:07:02;;;;;;;22.42;10.02;;;17.60;99.90;;;17.76;69.07;100972.56;5106863;28;20578;-68